Terminal Aerodrome Forecast
Issued by NWS Amarillo, TX

Home | Current Version | Previous Version | Text Only | Print | Product List | Glossary On
Versions: 1 2 3 4 5 6 7 8 9 10 11 12 13
000
FTUS44 KAMA 200500
TAFGUY
TAF
KGUY 200520Z 2006/2106 17009KT P6SM FEW300
     FM201500 19018G27KT P6SM SCT090
     FM210100 18015KT P6SM SCT090 BKN300=

USA.gov is the U.S. government's official web portal to all federal, state and local government web resources and services.